createdAt,value
2022-12-03T00:01:39.798Z,46.95
2022-12-03T00:04:09.711Z,45.88
2022-12-03T00:06:39.490Z,47.42
2022-12-03T00:09:09.296Z,43.03
2022-12-03T00:11:39.278Z,51.00
2022-12-03T00:14:11.630Z,51.42
2022-12-03T00:16:41.387Z,54.22
2022-12-03T00:19:11.126Z,52.70
2022-12-03T00:21:41.042Z,58.35
2022-12-03T00:24:11.860Z,51.80
2022-12-03T00:26:41.950Z,57.00
2022-12-03T00:29:14.366Z,53.47
2022-12-03T00:31:47.095Z,53.60
2022-12-03T00:34:16.902Z,52.10
2022-12-03T00:36:46.638Z,58.17
2022-12-03T00:39:16.334Z,59.40
2022-12-03T00:41:46.021Z,58.15
2022-12-03T00:44:18.353Z,61.38
2022-12-03T00:46:48.082Z,49.78
2022-12-03T00:49:17.830Z,55.47
2022-12-03T00:51:47.559Z,57.30
2022-12-03T00:54:17.442Z,61.35
2022-12-03T00:56:47.190Z,58.40
2022-12-03T00:59:19.439Z,59.10
2022-12-03T01:01:49.157Z,62.20
2022-12-03T01:04:18.973Z,62.65
2022-12-03T01:06:48.750Z,53.60
2022-12-03T01:09:18.452Z,58.22
2022-12-03T01:11:48.149Z,63.60
2022-12-03T01:14:22.459Z,58.63
2022-12-03T01:16:52.276Z,56.25
2022-12-03T01:19:24.330Z,57.63
2022-12-03T01:21:55.628Z,62.30
2022-12-03T01:24:25.531Z,57.50
2022-12-03T01:26:56.017Z,69.22
2022-12-03T01:29:29.687Z,66.20
2022-12-03T01:32:11.884Z,66.50
2022-12-03T01:34:41.622Z,72.00
2022-12-03T01:37:11.423Z,63.88
2022-12-03T01:39:41.266Z,72.47
2022-12-03T01:42:12.441Z,64.00
2022-12-03T01:44:45.221Z,72.43
2022-12-03T01:47:18.594Z,63.25
2022-12-03T01:49:52.290Z,72.50
2022-12-03T01:52:26.764Z,73.55
2022-12-03T01:54:58.620Z,67.75
2022-12-03T01:57:31.985Z,63.65
2022-12-03T02:00:07.745Z,55.90
2022-12-03T02:02:37.865Z,68.15
2022-12-03T02:05:18.198Z,62.10
2022-12-03T02:07:48.342Z,60.10
2022-12-03T02:10:21.296Z,56.53
2022-12-03T02:12:55.084Z,64.15
2022-12-03T02:15:28.015Z,66.20
2022-12-03T02:17:58.650Z,59.88
2022-12-03T02:20:28.521Z,55.97
2022-12-03T02:23:06.011Z,63.35
2022-12-03T02:25:39.587Z,58.25
2022-12-03T02:28:11.774Z,60.72
2022-12-03T02:30:42.144Z,62.60
2022-12-03T02:33:13.189Z,64.90
2022-12-03T02:35:43.079Z,72.30
2022-12-03T02:38:16.749Z,69.45
2022-12-03T02:40:52.157Z,73.82
2022-12-03T02:43:20.750Z,88.85
2022-12-03T02:45:53.073Z,114.43
2022-12-03T02:48:26.321Z,107.22
2022-12-03T02:50:58.601Z,91.93
2022-12-03T02:53:32.067Z,83.75
2022-12-03T02:56:05.586Z,76.15
2022-12-03T02:58:36.644Z,59.38
2022-12-03T03:01:07.646Z,65.47
2022-12-03T03:03:39.551Z,61.17
2022-12-03T03:06:11.326Z,63.60
2022-12-03T03:08:42.314Z,66.20
2022-12-03T03:11:14.968Z,63.65
2022-12-03T03:13:46.686Z,60.75
2022-12-03T03:16:16.606Z,64.30
2022-12-03T03:18:46.604Z,64.25
2022-12-03T03:21:16.436Z,54.05
2022-12-03T03:23:46.187Z,61.78
2022-12-03T03:26:18.980Z,55.38
2022-12-03T03:28:51.899Z,46.70
2022-12-03T03:31:25.891Z,44.00
2022-12-03T03:33:55.783Z,43.00
2022-12-03T03:36:26.177Z,36.50
2022-12-03T03:38:56.114Z,37.28
2022-12-03T03:41:30.730Z,36.00
2022-12-03T03:44:01.238Z,36.10
2022-12-03T03:46:33.546Z,31.45
2022-12-03T03:49:04.209Z,35.50
2022-12-03T03:51:35.250Z,32.38
2022-12-03T03:54:06.959Z,32.00
2022-12-03T03:56:39.863Z,33.20
2022-12-03T03:59:09.903Z,27.05
2022-12-03T04:01:39.956Z,40.13
2022-12-03T04:04:19.933Z,30.38
2022-12-03T04:06:49.982Z,30.25
2022-12-03T04:09:19.709Z,34.88
2022-12-03T04:12:04.480Z,30.83
2022-12-03T04:14:34.190Z,35.03
2022-12-03T04:17:04.083Z,31.88
2022-12-03T04:19:33.850Z,32.25
2022-12-03T04:22:16.034Z,30.27
2022-12-03T04:24:45.873Z,30.48
2022-12-03T04:27:30.646Z,28.25
2022-12-03T04:30:00.379Z,30.95
2022-12-03T04:32:42.543Z,30.88
2022-12-03T04:35:25.360Z,29.85
2022-12-03T04:37:55.136Z,31.85
2022-12-03T04:40:37.306Z,28.42
2022-12-03T04:43:09.569Z,28.75
2022-12-03T04:45:39.460Z,33.72
2022-12-03T04:48:09.441Z,28.65
2022-12-03T04:50:39.170Z,31.48
2022-12-03T04:53:08.870Z,28.70
2022-12-03T04:55:38.856Z,29.85
2022-12-03T04:58:11.273Z,27.80
2022-12-03T05:00:41.034Z,30.65
2022-12-03T05:03:10.726Z,27.38
2022-12-03T05:05:40.465Z,31.00
2022-12-03T05:08:10.228Z,29.50
2022-12-03T05:10:40.033Z,32.45
2022-12-03T05:13:12.275Z,31.65
2022-12-03T05:15:41.964Z,32.85
2022-12-03T05:18:11.859Z,29.55
2022-12-03T05:20:49.820Z,34.80
2022-12-03T05:23:24.007Z,30.92
2022-12-03T05:25:53.803Z,30.70
2022-12-03T05:28:26.100Z,34.65
2022-12-03T05:30:55.896Z,35.78
2022-12-03T05:33:25.679Z,29.88
2022-12-03T05:35:56.705Z,31.33
2022-12-03T05:38:26.749Z,30.05
2022-12-03T05:40:56.519Z,31.20
2022-12-03T05:43:26.249Z,33.40
2022-12-03T05:45:56.103Z,35.80
2022-12-03T05:48:25.820Z,36.65
2022-12-03T05:50:55.478Z,35.55
2022-12-03T05:53:28.183Z,31.35
2022-12-03T05:55:57.866Z,35.95
2022-12-03T05:58:30.132Z,33.47
2022-12-03T06:00:59.973Z,32.75
2022-12-03T06:03:29.801Z,35.78
2022-12-03T06:05:59.582Z,33.90
2022-12-03T06:08:29.438Z,34.35
2022-12-03T06:10:59.133Z,36.10
2022-12-03T06:13:31.445Z,38.55
2022-12-03T06:16:01.137Z,32.53
2022-12-03T06:18:31.261Z,36.75
2022-12-03T06:21:01.004Z,33.58
2022-12-03T06:23:30.723Z,35.88
2022-12-03T06:26:00.483Z,32.80
2022-12-03T06:28:33.333Z,32.95
2022-12-03T06:31:03.176Z,34.05
2022-12-03T06:33:33.178Z,34.22
2022-12-03T06:36:02.842Z,34.45
2022-12-03T06:38:32.589Z,34.25
2022-12-03T06:41:02.344Z,33.90
2022-12-03T06:43:34.674Z,34.38
2022-12-03T06:46:04.919Z,36.80
2022-12-03T06:48:34.678Z,40.35
2022-12-03T06:51:04.365Z,35.60
2022-12-03T06:53:34.067Z,35.33
2022-12-03T06:56:03.849Z,39.00
2022-12-03T06:58:36.153Z,35.63
2022-12-03T07:01:06.092Z,33.08
2022-12-03T07:03:35.790Z,34.13
2022-12-03T07:06:05.469Z,35.97
2022-12-03T07:08:35.153Z,42.50
2022-12-03T07:11:04.821Z,37.53
2022-12-03T07:13:37.170Z,37.83
2022-12-03T07:16:07.584Z,37.55
2022-12-03T07:18:37.397Z,33.58
2022-12-03T07:21:07.242Z,38.20
2022-12-03T07:23:37.396Z,40.97
2022-12-03T07:26:07.434Z,40.00
2022-12-03T07:28:40.013Z,41.17
2022-12-03T07:31:09.849Z,38.70
2022-12-03T07:33:39.597Z,39.55
2022-12-03T07:36:10.156Z,38.83
2022-12-03T07:38:40.226Z,44.65
2022-12-03T07:41:10.084Z,43.83
2022-12-03T07:43:42.448Z,48.08
2022-12-03T07:46:14.834Z,42.08
2022-12-03T07:48:44.573Z,50.33
2022-12-03T07:51:15.622Z,45.70
2022-12-03T07:53:45.517Z,47.17
2022-12-03T07:56:15.207Z,44.85
2022-12-03T07:58:47.489Z,41.40
2022-12-03T08:01:17.361Z,47.15
2022-12-03T08:03:47.131Z,51.72
2022-12-03T08:06:16.835Z,46.92
2022-12-03T08:08:46.543Z,47.60
2022-12-03T08:11:17.138Z,47.20
2022-12-03T08:13:49.537Z,48.58
2022-12-03T08:16:21.605Z,48.17
2022-12-03T08:18:52.606Z,46.20
2022-12-03T08:21:23.952Z,46.83
2022-12-03T08:23:53.686Z,46.03
2022-12-03T08:26:26.069Z,48.40
2022-12-03T08:28:58.388Z,53.13
2022-12-03T08:31:33.620Z,53.25
2022-12-03T08:34:19.393Z,48.03
2022-12-03T08:36:50.597Z,50.92
2022-12-03T08:39:33.368Z,49.88
2022-12-03T08:42:25.963Z,54.05
2022-12-03T08:44:58.281Z,49.83
2022-12-03T08:47:28.247Z,55.63
2022-12-03T08:50:01.380Z,49.38
2022-12-03T08:52:34.903Z,54.63
2022-12-03T08:55:33.467Z,47.67
2022-12-03T08:58:03.562Z,49.75
2022-12-03T09:00:35.915Z,49.53
2022-12-03T09:03:05.704Z,53.92
2022-12-03T09:05:35.459Z,55.83
2022-12-03T09:08:05.186Z,50.13
2022-12-03T09:10:35.797Z,49.33
2022-12-03T09:13:05.516Z,52.40
2022-12-03T09:15:38.025Z,48.47
2022-12-03T09:18:08.485Z,47.85
2022-12-03T09:20:38.522Z,48.72
2022-12-03T09:23:08.206Z,44.95
2022-12-03T09:25:38.088Z,51.47
2022-12-03T09:28:08.674Z,48.13
2022-12-03T09:30:41.004Z,45.78
2022-12-03T09:33:10.980Z,49.22
2022-12-03T09:35:40.692Z,47.63
2022-12-03T09:38:10.499Z,50.33
2022-12-03T09:40:41.540Z,54.05
2022-12-03T09:43:11.409Z,47.55
2022-12-03T09:45:43.747Z,50.50
2022-12-03T09:48:15.040Z,52.97
2022-12-03T09:50:45.240Z,46.17
2022-12-03T09:53:18.931Z,51.10
2022-12-03T09:55:49.805Z,48.80
2022-12-03T09:58:23.138Z,53.83
2022-12-03T10:00:56.317Z,49.22
2022-12-03T10:03:30.917Z,51.72
2022-12-03T10:06:00.773Z,48.92
2022-12-03T10:08:35.020Z,47.20
2022-12-03T10:11:04.744Z,46.03
2022-12-03T10:13:37.306Z,49.35
2022-12-03T10:16:13.301Z,49.00
2022-12-03T10:18:48.305Z,54.40
2022-12-03T10:21:22.445Z,52.58
2022-12-03T10:23:55.381Z,56.28
2022-12-03T10:26:42.626Z,55.63
2022-12-03T10:29:15.847Z,57.58
2022-12-03T10:31:50.604Z,51.38
2022-12-03T10:34:27.389Z,45.70
2022-12-03T10:37:13.565Z,50.78
2022-12-03T10:42:27.588Z,55.42
2022-12-03T10:45:14.646Z,48.40
2022-12-03T10:48:06.044Z,49.17
2022-12-03T10:50:37.096Z,52.72
2022-12-03T10:53:07.374Z,52.58
2022-12-03T10:55:41.475Z,62.40
2022-12-03T10:58:20.808Z,52.33
2022-12-03T11:00:51.002Z,53.75
2022-12-03T11:03:26.496Z,54.38
2022-12-03T11:05:57.616Z,56.65
2022-12-03T11:08:29.510Z,53.42
2022-12-03T11:11:01.505Z,53.80
2022-12-03T11:13:47.437Z,52.63
2022-12-03T11:16:37.914Z,61.35
2022-12-03T11:19:20.609Z,63.75
2022-12-03T11:22:27.086Z,52.47
2022-12-03T11:25:26.959Z,54.67
2022-12-03T11:28:34.051Z,58.97
2022-12-03T11:31:09.249Z,56.58
2022-12-03T11:33:41.256Z,66.40
2022-12-03T11:36:54.052Z,59.10
2022-12-03T11:39:55.676Z,58.05
2022-12-03T11:42:40.735Z,56.58
2022-12-03T11:45:22.169Z,59.25
2022-12-03T11:48:06.227Z,55.42
2022-12-03T11:50:40.324Z,60.80
2022-12-03T11:53:23.033Z,61.40
2022-12-03T11:56:06.298Z,55.92
2022-12-03T11:58:38.311Z,58.38
2022-12-03T12:01:10.409Z,55.65
2022-12-03T12:03:45.974Z,57.55
2022-12-03T12:09:03.900Z,64.25
2022-12-03T12:11:35.746Z,65.50
2022-12-03T12:14:06.626Z,53.22
2022-12-03T12:16:55.425Z,55.67
2022-12-03T12:19:33.867Z,58.10
2022-12-03T12:22:32.309Z,57.53
2022-12-03T12:25:07.482Z,53.85
2022-12-03T12:27:45.225Z,54.63
2022-12-03T12:30:18.049Z,66.25
2022-12-03T12:32:50.162Z,54.22
2022-12-03T12:35:22.259Z,60.13
2022-12-03T12:37:59.791Z,59.75
2022-12-03T12:40:34.794Z,57.13
2022-12-03T12:43:13.211Z,59.28
2022-12-03T12:45:47.071Z,53.15
2022-12-03T12:48:24.390Z,53.67
2022-12-03T12:50:59.957Z,44.60
2022-12-03T12:56:09.341Z,55.95
2022-12-03T12:58:39.076Z,53.33
2022-12-03T13:01:23.395Z,53.72
2022-12-03T13:03:54.352Z,57.72
2022-12-03T13:06:28.371Z,56.90
2022-12-03T13:08:58.567Z,55.83
2022-12-03T13:11:39.665Z,60.05
2022-12-03T13:14:17.711Z,60.28
2022-12-03T13:16:47.940Z,59.80
2022-12-03T13:19:26.118Z,55.83
2022-12-03T13:21:57.505Z,55.97
2022-12-03T13:24:35.918Z,56.67
2022-12-03T13:27:23.240Z,58.15
2022-12-03T13:29:57.421Z,57.83
2022-12-03T13:32:31.181Z,47.83
2022-12-03T13:35:06.705Z,56.00
2022-12-03T13:37:36.634Z,52.08
2022-12-03T13:40:15.156Z,54.88
2022-12-03T13:42:46.634Z,57.65
2022-12-03T13:45:34.030Z,51.88
2022-12-03T13:48:09.190Z,53.00
2022-12-03T13:50:41.060Z,51.00
2022-12-03T13:53:22.329Z,51.05
2022-12-03T13:55:54.536Z,51.83
2022-12-03T13:58:28.149Z,49.08
2022-12-03T14:00:57.923Z,53.10
2022-12-03T14:03:27.667Z,53.42
2022-12-03T14:05:57.430Z,47.33
2022-12-03T14:08:27.182Z,51.63
2022-12-03T14:11:00.475Z,51.47
2022-12-03T14:13:33.150Z,51.38
2022-12-03T14:16:03.121Z,57.85
2022-12-03T14:18:32.837Z,55.30
2022-12-03T14:21:02.547Z,48.55
2022-12-03T14:23:32.282Z,50.70
2022-12-03T14:26:02.029Z,54.55
2022-12-03T14:28:36.630Z,54.67
2022-12-03T14:31:06.381Z,55.65
2022-12-03T14:33:36.080Z,57.55
2022-12-03T14:36:05.908Z,53.08
2022-12-03T14:38:37.935Z,52.58
2022-12-03T14:41:27.888Z,54.28
2022-12-03T14:44:00.181Z,52.80
2022-12-03T14:46:29.995Z,54.03
2022-12-03T14:48:59.706Z,51.15
2022-12-03T14:51:29.494Z,50.67
2022-12-03T14:53:59.178Z,57.75
2022-12-03T14:56:28.962Z,55.80
2022-12-03T14:59:03.606Z,47.97
2022-12-03T15:01:33.400Z,51.63
2022-12-03T15:04:03.406Z,48.75
2022-12-03T15:06:33.134Z,47.50
2022-12-03T15:09:03.060Z,47.55
2022-12-03T15:11:35.658Z,47.70
2022-12-03T15:14:08.419Z,47.17
2022-12-03T15:16:38.261Z,53.33
2022-12-03T15:19:08.125Z,52.75
2022-12-03T15:21:37.921Z,50.55
2022-12-03T15:24:08.057Z,54.53
2022-12-03T15:26:37.752Z,50.63
2022-12-03T15:29:10.069Z,50.67
2022-12-03T15:31:39.871Z,53.45
2022-12-03T15:34:09.693Z,46.08
2022-12-03T15:36:39.434Z,51.28
2022-12-03T15:39:09.187Z,55.53
2022-12-03T15:41:40.117Z,51.17
2022-12-03T15:44:12.398Z,55.85
2022-12-03T15:46:42.132Z,57.97
2022-12-03T15:49:12.147Z,50.88
2022-12-03T15:51:41.884Z,64.05
2022-12-03T15:54:12.571Z,57.53
2022-12-03T15:56:42.563Z,56.13
2022-12-03T15:59:15.341Z,54.33
2022-12-03T16:01:45.105Z,58.83
2022-12-03T16:04:14.828Z,47.25
2022-12-03T16:06:44.531Z,52.55
2022-12-03T16:09:14.262Z,54.20
2022-12-03T16:11:44.158Z,53.80
2022-12-03T16:14:16.483Z,60.88
2022-12-03T16:16:46.207Z,54.47
2022-12-03T16:19:16.068Z,58.15
2022-12-03T16:21:45.813Z,57.53
2022-12-03T16:24:15.569Z,67.22
2022-12-03T16:26:45.300Z,54.83
2022-12-03T16:29:18.314Z,59.75
2022-12-03T16:31:48.586Z,56.03
2022-12-03T16:34:18.293Z,59.78
2022-12-03T16:36:48.278Z,59.08
2022-12-03T16:39:18.627Z,62.28
2022-12-03T16:41:48.413Z,56.92
2022-12-03T16:44:32.322Z,54.58
2022-12-03T16:47:03.237Z,56.28
2022-12-03T16:49:34.201Z,54.15
2022-12-03T16:52:04.038Z,61.20
2022-12-03T16:54:33.698Z,61.67
2022-12-03T16:57:03.440Z,62.17
2022-12-03T16:59:36.048Z,68.55
2022-12-03T17:02:05.918Z,62.55
2022-12-03T17:04:35.750Z,65.43
2022-12-03T17:07:05.533Z,60.92
2022-12-03T17:09:35.391Z,58.35
2022-12-03T17:12:06.119Z,60.58
2022-12-03T17:14:38.353Z,61.95
2022-12-03T17:17:09.340Z,61.90
2022-12-03T17:19:39.128Z,65.75
2022-12-03T17:22:10.101Z,65.40
2022-12-03T17:24:39.793Z,62.90
2022-12-03T17:27:09.533Z,64.30
2022-12-03T17:29:42.191Z,76.47
2022-12-03T17:32:11.906Z,74.57
2022-12-03T17:34:43.177Z,76.30
2022-12-03T17:37:12.897Z,77.82
2022-12-03T17:39:42.572Z,82.95
2022-12-03T17:42:12.302Z,76.90
2022-12-03T17:44:44.643Z,79.63
2022-12-03T17:47:14.319Z,74.93
2022-12-03T17:49:44.037Z,77.10
2022-12-03T17:52:13.734Z,67.35
2022-12-03T17:55:09.317Z,67.28
2022-12-03T17:57:33.175Z,69.47
2022-12-03T18:00:05.699Z,76.43
2022-12-03T18:02:42.275Z,78.75
2022-12-03T18:05:13.543Z,71.85
2022-12-03T18:07:43.809Z,78.70
2022-12-03T18:10:14.253Z,91.93
2022-12-03T18:12:44.004Z,66.10
2022-12-03T18:15:16.796Z,77.95
2022-12-03T18:17:46.601Z,103.18
2022-12-03T18:20:16.355Z,69.82
2022-12-03T18:22:46.317Z,66.55
2022-12-03T18:25:18.098Z,96.10
2022-12-03T18:27:48.420Z,79.32
2022-12-03T18:30:21.142Z,70.60
2022-12-03T18:32:51.808Z,79.47
2022-12-03T18:35:21.553Z,76.55
2022-12-03T18:37:52.493Z,55.83
2022-12-03T18:40:27.206Z,76.40
2022-12-03T18:42:58.489Z,72.93
2022-12-03T18:45:31.732Z,60.67
2022-12-03T18:48:01.454Z,75.53
2022-12-03T18:50:31.230Z,59.22
2022-12-03T18:53:00.941Z,60.45
2022-12-03T18:55:35.997Z,66.53
2022-12-03T18:58:05.717Z,58.65
2022-12-03T19:00:38.432Z,74.82
2022-12-03T19:03:09.119Z,67.50
2022-12-03T19:05:39.360Z,54.78
2022-12-03T19:08:14.809Z,65.40
2022-12-03T19:10:45.108Z,62.17
2022-12-03T19:13:15.048Z,66.65
2022-12-03T19:15:49.119Z,58.47
2022-12-03T19:18:18.880Z,53.40
2022-12-03T19:20:48.574Z,66.53
2022-12-03T19:23:19.171Z,61.38
2022-12-03T19:25:58.055Z,61.00
2022-12-03T19:28:28.235Z,57.60
2022-12-03T19:31:02.687Z,49.60
2022-12-03T19:33:33.799Z,55.22
2022-12-03T19:36:05.346Z,58.40
2022-12-03T19:38:35.546Z,58.25
2022-12-03T19:41:07.740Z,64.97
2022-12-03T19:43:38.638Z,54.88
2022-12-03T19:46:12.756Z,65.57
2022-12-03T19:48:43.661Z,56.25
2022-12-03T19:51:33.711Z,62.63
2022-12-03T19:54:04.050Z,50.08
2022-12-03T19:56:33.944Z,55.63
2022-12-03T19:59:03.750Z,59.00
2022-12-03T20:01:40.476Z,53.38
2022-12-03T20:04:11.227Z,49.00
2022-12-03T20:06:41.729Z,53.97
2022-12-03T20:09:17.300Z,49.97
2022-12-03T20:11:47.636Z,60.30
2022-12-03T20:14:19.302Z,62.67
2022-12-03T20:16:52.028Z,63.03
2022-12-03T20:19:22.000Z,54.85
2022-12-03T20:21:51.676Z,50.22
2022-12-03T20:24:21.385Z,67.45
2022-12-03T20:26:51.053Z,55.83
2022-12-03T20:29:20.766Z,57.70
2022-12-03T20:31:53.186Z,64.28
2022-12-03T20:34:22.976Z,59.25
2022-12-03T20:36:52.666Z,72.07
2022-12-03T20:39:22.372Z,80.03
2022-12-03T20:41:52.095Z,81.38
2022-12-03T20:44:21.803Z,69.72
2022-12-03T20:46:54.092Z,91.22
2022-12-03T20:49:24.154Z,99.07
2022-12-03T20:51:53.961Z,73.05
2022-12-03T20:54:23.698Z,66.35
2022-12-03T20:56:53.488Z,67.05
2022-12-03T20:59:23.161Z,67.15
2022-12-03T21:01:55.585Z,73.30
2022-12-03T21:04:25.390Z,109.40
2022-12-03T21:06:55.078Z,84.65
2022-12-03T21:09:24.904Z,110.80
2022-12-03T21:11:54.698Z,143.50
2022-12-03T21:14:24.689Z,91.40
2022-12-03T21:17:08.529Z,105.90
2022-12-03T21:19:39.322Z,114.10
2022-12-03T21:22:09.750Z,116.55
2022-12-03T21:24:42.768Z,161.80
2022-12-03T21:27:15.721Z,99.25
2022-12-03T21:29:49.662Z,91.65
2022-12-03T21:32:21.955Z,202.18
2022-12-03T21:34:51.650Z,123.30
2022-12-03T21:37:21.361Z,90.13
2022-12-03T21:39:51.200Z,139.43
2022-12-03T21:42:35.711Z,145.20
2022-12-03T21:45:08.252Z,160.25
2022-12-03T21:47:40.892Z,136.98
2022-12-03T21:50:13.803Z,195.65
2022-12-03T21:52:44.015Z,247.60
2022-12-03T21:55:13.702Z,156.07
2022-12-03T21:57:43.399Z,161.05
2022-12-03T22:00:14.477Z,142.25
2022-12-03T22:02:47.028Z,176.95
2022-12-03T22:05:16.776Z,246.35
2022-12-03T22:07:46.835Z,183.93
2022-12-03T22:10:16.828Z,112.22
2022-12-03T22:12:46.568Z,191.02
2022-12-03T22:15:19.153Z,196.35
2022-12-03T22:17:53.086Z,188.95
2022-12-03T22:20:23.257Z,205.65
2022-12-03T22:22:52.994Z,189.60
2022-12-03T22:25:22.692Z,257.17
2022-12-03T22:27:52.357Z,271.80
2022-12-03T22:30:22.401Z,261.55
2022-12-03T22:32:55.015Z,313.00
2022-12-03T22:35:24.669Z,166.50
2022-12-03T22:37:54.359Z,195.73
2022-12-03T22:40:24.034Z,132.50
2022-12-03T22:42:53.753Z,160.55
2022-12-03T22:45:23.461Z,208.05
2022-12-03T22:47:55.739Z,240.45
2022-12-03T22:50:25.458Z,221.98
2022-12-03T22:52:56.425Z,217.27
2022-12-03T22:55:26.187Z,223.35
2022-12-03T22:57:55.965Z,265.17
2022-12-03T23:00:32.654Z,233.63
2022-12-03T23:03:05.327Z,241.38
2022-12-03T23:05:38.530Z,178.75
2022-12-03T23:08:09.591Z,181.52
2022-12-03T23:10:41.878Z,236.75
2022-12-03T23:13:12.714Z,157.07
2022-12-03T23:15:48.125Z,151.90
2022-12-03T23:18:21.700Z,175.05
2022-12-03T23:20:54.003Z,134.85
2022-12-03T23:23:25.684Z,130.75
2022-12-03T23:26:02.495Z,171.55
2022-12-03T23:28:34.223Z,236.40
2022-12-03T23:31:04.322Z,189.20
2022-12-03T23:33:38.517Z,122.18
2022-12-03T23:36:10.307Z,109.88
2022-12-03T23:38:40.284Z,110.85
2022-12-03T23:41:11.471Z,140.75
2022-12-03T23:43:41.854Z,106.05
2022-12-03T23:46:14.120Z,152.43
2022-12-03T23:48:46.734Z,92.97
2022-12-03T23:51:21.038Z,127.13
2022-12-03T23:53:50.806Z,117.70
2022-12-03T23:56:22.518Z,140.93
2022-12-03T23:58:52.330Z,85.70
